Time;durP1;ratioP1;P1;durP2;ratioP2;P2;SDS_P1;SDS_P2;PMS_P1;PMS_P2;Temp;Humidity;BMP_temperature;BMP_pressure;BME280_temperature;BME280_humidity;BME280_pressure;Samples;Min_cycle;Max_cycle;Signal;HPM_P1;HPM_P2
2024/01/06 00:02:09;;;;;;;5.13;3.50;;;;;;;3.38;100.00;96171.16;4999877;28;20431;-80
2024/01/06 00:04:35;;;;;;;7.55;3.63;;;;;;;3.38;100.00;96174.53;4998544;28;20409;-80
2024/01/06 00:07:01;;;;;;;4.82;3.47;;;;;;;3.38;100.00;96182.41;4998623;28;20895;-80
2024/01/06 00:09:29;;;;;;;6.00;3.83;;;;;;;3.40;100.00;96187.41;4999088;28;20457;-80
2024/01/06 00:11:55;;;;;;;8.95;3.85;;;;;;;3.44;100.00;96188.53;4998954;28;20437;-80
2024/01/06 00:14:21;;;;;;;5.22;3.45;;;;;;;3.44;100.00;96184.09;4998914;28;20449;-80
2024/01/06 00:16:47;;;;;;;4.03;2.78;;;;;;;3.44;100.00;96188.53;4998602;28;20405;-80
2024/01/06 00:19:13;;;;;;;5.22;3.30;;;;;;;3.42;100.00;96183.53;5009177;28;20398;-80
2024/01/06 00:21:39;;;;;;;6.38;3.03;;;;;;;3.40;100.00;96185.56;5017734;28;20502;-79
2024/01/06 00:24:06;;;;;;;4.55;3.25;;;;;;;3.39;100.00;96183.97;5006420;28;20399;-79
2024/01/06 00:26:33;;;;;;;8.18;3.95;;;;;;;3.37;100.00;96190.50;4998012;28;20409;-80
2024/01/06 00:28:59;;;;;;;9.15;3.95;;;;;;;3.38;100.00;96185.00;4997105;28;20508;-79
2024/01/06 00:31:25;;;;;;;13.45;5.18;;;;;;;3.35;100.00;96195.97;4997831;28;20395;-80
2024/01/06 00:33:52;;;;;;;8.70;4.32;;;;;;;3.42;100.00;96199.22;4999021;28;20783;-80
2024/01/06 00:36:18;;;;;;;8.15;3.80;;;;;;;3.45;100.00;96198.75;4998131;28;20430;-79
2024/01/06 00:38:44;;;;;;;5.85;3.80;;;;;;;3.45;100.00;96195.34;5000224;28;20760;-77
2024/01/06 00:41:10;;;;;;;6.87;3.60;;;;;;;3.45;100.00;96190.91;4999492;28;20425;-78
2024/01/06 00:43:38;;;;;;;4.40;3.15;;;;;;;3.45;100.00;96190.13;4998709;28;20395;-79
2024/01/06 00:46:04;;;;;;;3.50;2.70;;;;;;;3.42;100.00;96199.22;4997529;28;20483;-80
2024/01/06 00:48:30;;;;;;;7.10;3.42;;;;;;;3.38;100.00;96187.63;4997492;28;20430;-80
2024/01/06 00:50:56;;;;;;;6.70;3.40;;;;;;;3.38;100.00;96205.94;4996822;28;20398;-80
2024/01/06 00:53:22;;;;;;;7.13;3.65;;;;;;;3.35;100.00;96203.81;4997764;28;20514;-80
2024/01/06 00:55:48;;;;;;;7.38;3.50;;;;;;;3.38;100.00;96205.16;4997004;28;20398;-80
2024/01/06 00:58:14;;;;;;;10.82;4.20;;;;;;;3.34;100.00;96212.66;4997377;28;20434;-80
2024/01/06 01:00:42;;;;;;;9.18;4.15;;;;;;;3.39;100.00;96211.97;4998785;28;20736;-80
2024/01/06 01:03:08;;;;;;;9.13;3.63;;;;;;;3.39;100.00;96218.00;4999108;28;20407;-80
2024/01/06 01:05:34;;;;;;;12.83;4.73;;;;;;;3.38;100.00;96221.63;4999676;28;20402;-80
2024/01/06 01:08:00;;;;;;;8.23;3.67;;;;;;;3.40;100.00;96219.56;5000410;28;20426;-80
2024/01/06 01:10:26;;;;;;;17.45;4.60;;;;;;;3.34;100.00;96220.53;5000088;28;20406;-80
2024/01/06 01:12:53;;;;;;;11.10;4.10;;;;;;;3.36;100.00;96226.31;5000415;28;20886;-80
2024/01/06 01:15:19;;;;;;;4.95;3.25;;;;;;;3.39;100.00;96225.84;4998944;28;20395;-79
2024/01/06 01:17:46;;;;;;;6.50;3.20;;;;;;;3.39;100.00;96228.44;5000061;28;20410;-79
2024/01/06 01:20:12;;;;;;;8.30;3.53;;;;;;;3.35;100.00;96224.72;4999549;28;20430;-79
2024/01/06 01:22:38;;;;;;;8.70;3.40;;;;;;;3.34;100.00;96230.19;4999184;28;20443;-79
2024/01/06 01:25:07;;;;;;;13.95;4.50;;;;;;;3.31;100.00;96228.03;4999485;28;20407;-79
2024/01/06 01:27:33;;;;;;;7.03;3.50;;;;;;;3.32;100.00;96230.41;4999586;28;20402;-79
2024/01/06 01:29:59;;;;;;;12.63;4.10;;;;;;;3.29;100.00;96236.13;4999095;28;20441;-79
2024/01/06 01:32:26;;;;;;;7.28;3.50;;;;;;;3.32;100.00;96229.63;4999375;28;20414;-80
2024/01/06 01:34:53;;;;;;;6.32;3.20;;;;;;;3.31;100.00;96236.66;4999816;28;20398;-79
2024/01/06 01:37:19;;;;;;;6.75;3.45;;;;;;;3.31;100.00;96230.63;4999198;28;20395;-79
2024/01/06 01:39:45;;;;;;;8.38;3.70;;;;;;;3.28;100.00;96242.38;4999011;28;20407;-79
2024/01/06 01:42:12;;;;;;;9.43;3.50;;;;;;;3.29;100.00;96238.75;4998864;28;20437;-79
2024/01/06 01:44:38;;;;;;;14.05;4.50;;;;;;;3.22;100.00;96245.13;4998755;28;20404;-79
2024/01/06 01:47:05;;;;;;;8.30;3.40;;;;;;;3.29;100.00;96248.41;5001877;28;20398;-79
2024/01/06 01:49:32;;;;;;;6.60;3.40;;;;;;;3.30;100.00;96252.63;5006531;28;20418;-79
2024/01/06 01:52:00;;;;;;;7.15;3.70;;;;;;;3.28;100.00;96254.66;5011077;28;20401;-79
2024/01/06 01:54:26;;;;;;;13.63;4.20;;;;;;;3.27;100.00;96247.84;5009763;28;20395;-80
2024/01/06 01:56:53;;;;;;;7.78;3.53;;;;;;;3.28;100.00;96257.28;5009845;28;20429;-79
2024/01/06 01:59:20;;;;;;;16.95;4.05;;;;;;;3.24;100.00;96256.13;5007509;28;20417;-80
2024/01/06 02:01:46;;;;;;;8.73;3.50;;;;;;;3.28;100.00;96258.06;5003785;28;20422;-80
2024/01/06 02:04:12;;;;;;;6.68;3.10;;;;;;;3.31;100.00;96262.81;5003025;28;20409;-78
2024/01/06 02:06:38;;;;;;;3.50;2.75;;;;;;;3.33;100.00;96259.97;5002377;28;20398;-79
2024/01/06 02:09:06;;;;;;;5.28;3.15;;;;;;;3.33;100.00;96258.16;5001701;28;20476;-79
2024/01/06 02:11:32;;;;;;;4.70;2.65;;;;;;;3.33;100.00;96259.97;5002155;28;20767;-79
2024/01/06 02:13:59;;;;;;;9.80;3.58;;;;;;;3.30;100.00;96266.50;5002194;28;20497;-79
2024/01/06 02:16:25;;;;;;;11.30;4.07;;;;;;;3.30;100.00;96270.91;5002060;28;20403;-79
2024/01/06 02:18:51;;;;;;;10.02;3.50;;;;;;;3.28;100.00;96271.16;5002425;28;20427;-79
2024/01/06 02:21:20;;;;;;;11.17;3.83;;;;;;;3.27;100.00;96266.94;5002105;28;20452;-79
2024/01/06 02:23:48;;;;;;;9.50;3.90;;;;;;;3.32;100.00;96271.47;5002021;28;20410;-79
2024/01/06 02:26:14;;;;;;;4.00;3.00;;;;;;;3.34;100.00;96266.81;5002347;28;20397;-79
2024/01/06 02:28:41;;;;;;;5.15;3.22;;;;;;;3.33;100.00;96275.66;5002826;28;20430;-78
2024/01/06 02:31:07;;;;;;;4.40;2.70;;;;;;;3.33;100.00;96273.06;5002067;28;20404;-79
2024/01/06 02:33:33;;;;;;;13.07;3.40;;;;;;;3.31;100.00;96277.72;5015044;28;20405;-79
2024/01/06 02:35:59;;;;;;;14.70;4.18;;;;;;;3.28;100.00;96278.19;5015365;28;20409;-79
2024/01/06 02:38:25;;;;;;;5.47;3.42;;;;;;;3.29;100.00;96277.97;5016360;28;20418;-78
2024/01/06 02:40:53;;;;;;;13.80;4.30;;;;;;;3.26;100.00;96282.84;5016858;28;20493;-77
2024/01/06 02:43:19;;;;;;;5.05;3.40;;;;;;;3.29;100.00;96293.66;5016454;28;20387;-78
2024/01/06 02:45:46;;;;;;;12.87;4.20;;;;;;;3.26;100.00;96290.69;5016356;28;20406;-78
2024/01/06 02:48:12;;;;;;;8.60;3.85;;;;;;;3.29;100.00;96285.81;5016033;28;20426;-77
2024/01/06 02:50:38;;;;;;;4.05;3.20;;;;;;;3.28;100.00;96281.59;5008775;28;20871;-79
2024/01/06 02:53:05;;;;;;;4.38;3.08;;;;;;;3.28;100.00;96278.19;5001977;28;20482;-80
2024/01/06 02:55:31;;;;;;;7.45;3.70;;;;;;;3.23;100.00;96286.75;5002046;28;20409;-80
2024/01/06 02:57:58;;;;;;;6.55;2.70;;;;;;;3.21;100.00;96288.78;5002031;28;20437;-79
2024/01/06 03:00:25;;;;;;;6.32;3.30;;;;;;;3.16;100.00;96300.97;5000927;28;20423;-80
2024/01/06 03:02:51;;;;;;;9.18;3.65;;;;;;;3.08;100.00;96296.91;5001419;28;20402;-79
2024/01/06 03:05:18;;;;;;;10.38;4.80;;;;;;;3.00;100.00;96294.63;5001505;28;20968;-80
2024/01/06 03:07:44;;;;;;;10.90;4.15;;;;;;;2.98;100.00;96292.25;5001732;28;20485;-79
2024/01/06 03:10:10;;;;;;;12.77;4.67;;;;;;;2.96;100.00;96288.25;5000242;28;20525;-79
2024/01/06 03:12:36;;;;;;;11.13;4.53;;;;;;;3.00;100.00;96290.19;5000137;28;20403;-80
2024/01/06 03:15:05;;;;;;;6.35;4.00;;;;;;;3.00;100.00;96284.19;5000961;28;20402;-80
2024/01/06 03:17:31;;;;;;;7.32;3.75;;;;;;;2.96;100.00;96294.28;5001619;28;20563;-79
2024/01/06 03:19:57;;;;;;;7.05;3.83;;;;;;;2.93;100.00;96296.56;5001133;28;20410;-80
2024/01/06 03:22:23;;;;;;;7.47;4.03;;;;;;;2.89;100.00;96298.03;5000021;28;20411;-79
2024/01/06 03:24:49;;;;;;;11.45;4.47;;;;;;;2.87;100.00;96293.03;4997941;28;20406;-79
2024/01/06 03:27:16;;;;;;;7.90;4.38;;;;;;;2.87;100.00;96287.81;4997805;28;20398;-79
2024/01/06 03:29:42;;;;;;;6.72;4.25;;;;;;;2.87;100.00;96285.19;4997517;28;20426;-79
2024/01/06 03:32:09;;;;;;;8.10;4.43;;;;;;;2.86;100.00;96280.19;4997965;28;20395;-79
2024/01/06 03:34:35;;;;;;;11.88;4.93;;;;;;;2.85;100.00;96276.00;4997987;28;20751;-79
2024/01/06 03:37:02;;;;;;;7.82;3.95;;;;;;;2.86;100.00;96282.81;4997904;28;20414;-79
2024/01/06 03:39:28;;;;;;;5.60;3.53;;;;;;;2.85;100.00;96282.03;4997787;28;20816;-79
2024/01/06 03:41:54;;;;;;;5.97;3.50;;;;;;;2.84;100.00;96282.25;4997970;28;20780;-79
2024/01/06 03:44:20;;;;;;;5.80;3.47;;;;;;;2.82;100.00;96281.69;5001756;28;20421;-79
2024/01/06 03:46:47;;;;;;;7.53;3.67;;;;;;;2.80;100.00;96286.34;5004267;28;20871;-79
2024/01/06 03:49:14;;;;;;;6.50;4.13;;;;;;;2.79;100.00;96280.31;5005177;28;20445;-79
2024/01/06 03:51:40;;;;;;;6.70;3.60;;;;;;;2.78;100.00;96272.72;5005892;28;20880;-79
2024/01/06 03:54:06;;;;;;;10.63;4.47;;;;;;;2.77;100.00;96281.59;5005926;28;20413;-80
2024/01/06 03:56:33;;;;;;;10.80;4.90;;;;;;;2.76;100.00;96280.00;5002526;28;20457;-79
2024/01/06 03:58:59;;;;;;;8.55;4.60;;;;;;;2.78;100.00;96280.56;4997435;28;20477;-79
2024/01/06 04:01:25;;;;;;;7.00;4.20;;;;;;;2.79;100.00;96284.75;5001765;28;20402;-79
2024/01/06 04:03:51;;;;;;;6.38;4.03;;;;;;;2.82;100.00;96285.09;5002760;28;20508;-79
2024/01/06 04:06:18;;;;;;;4.25;3.72;;;;;;;2.82;100.00;96284.31;5002204;28;20398;-79
2024/01/06 04:08:45;;;;;;;4.33;3.87;;;;;;;2.81;100.00;96286.13;5002165;28;20430;-79
2024/01/06 04:11:11;;;;;;;6.40;4.30;;;;;;;2.79;100.00;96288.16;5002421;28;20502;-79
2024/01/06 04:13:37;;;;;;;6.88;4.20;;;;;;;2.79;100.00;96295.19;5003060;28;20399;-79
2024/01/06 04:16:03;;;;;;;5.22;3.60;;;;;;;2.78;100.00;96293.63;5003889;28;20410;-79
2024/01/06 04:18:30;;;;;;;6.60;4.10;;;;;;;2.73;100.00;96292.47;5003603;28;20410;-80
2024/01/06 04:20:56;;;;;;;5.47;3.53;;;;;;;2.72;100.00;96296.13;5001550;28;20422;-79
2024/01/06 04:23:23;;;;;;;5.28;3.25;;;;;;;2.69;100.00;96296.59;5001577;28;20407;-80
2024/01/06 04:25:49;;;;;;;4.75;3.28;;;;;;;2.67;100.00;96303.06;4999673;28;20745;-79
2024/01/06 04:28:15;;;;;;;6.85;3.63;;;;;;;2.64;100.00;96303.50;5001992;28;20485;-80
2024/01/06 04:30:42;;;;;;;10.20;4.22;;;;;;;2.61;100.00;96307.38;5002201;28;20403;-80
2024/01/06 04:33:08;;;;;;;9.35;4.10;;;;;;;2.62;100.00;96310.78;5001271;28;20439;-80
2024/01/06 04:35:34;;;;;;;5.45;4.00;;;;;;;2.63;100.00;96307.94;5001460;28;20398;-80
2024/01/06 04:38:00;;;;;;;5.63;3.75;;;;;;;2.65;100.00;96311.13;5002434;28;20779;-80
2024/01/06 04:40:27;;;;;;;4.63;3.53;;;;;;;2.65;100.00;96312.94;5000069;28;20406;-80
2024/01/06 04:42:54;;;;;;;7.88;4.35;;;;;;;2.63;100.00;96312.38;4998871;28;20437;-79
2024/01/06 04:45:23;;;;;;;8.98;4.43;;;;;;;2.63;100.00;96307.16;4998240;28;20406;-80
2024/01/06 04:47:49;;;;;;;13.65;5.40;;;;;;;2.62;100.00;96303.75;4998258;28;20477;-80
2024/01/06 04:50:15;;;;;;;8.57;4.43;;;;;;;2.63;100.00;96307.94;4998757;28;20826;-79
2024/01/06 04:52:42;;;;;;;13.90;5.63;;;;;;;2.61;100.00;96303.97;4998446;28;20398;-80
2024/01/06 04:55:08;;;;;;;7.00;4.97;;;;;;;2.67;100.00;96306.47;4997451;28;20625;-80
2024/01/06 04:57:36;;;;;;;7.97;4.75;;;;;;;2.69;100.00;96308.84;4997405;28;20894;-80
2024/01/06 05:00:03;;;;;;;11.23;5.37;;;;;;;2.68;100.00;96312.47;4996836;28;20462;-79
2024/01/06 05:02:29;;;;;;;7.85;4.30;;;;;;;2.68;100.00;96309.88;4998212;28;20403;-79
2024/01/06 05:04:55;;;;;;;8.67;5.10;;;;;;;2.67;100.00;96310.91;4997795;28;20410;-80
2024/01/06 05:07:22;;;;;;;8.48;4.28;;;;;;;2.69;100.00;96322.72;4998079;28;20477;-80
2024/01/06 05:09:48;;;;;;;7.68;4.18;;;;;;;2.68;100.00;96321.13;4997617;28;20414;-79
2024/01/06 05:12:14;;;;;;;5.57;4.18;;;;;;;2.65;100.00;96321.56;4997812;28;20405;-79
2024/01/06 05:14:42;;;;;;;9.55;4.68;;;;;;;2.64;100.00;96327.00;4997308;28;20426;-80
2024/01/06 05:17:09;;;;;;;5.30;3.55;;;;;;;2.61;100.00;96325.66;4997667;28;20526;-79
2024/01/06 05:19:35;;;;;;;5.53;3.40;;;;;;;2.61;100.00;96324.88;4997024;28;20595;-80
2024/01/06 05:22:01;;;;;;;6.28;3.70;;;;;;;2.58;100.00;96326.09;4998082;28;20406;-80
2024/01/06 05:24:27;;;;;;;5.22;3.75;;;;;;;2.55;100.00;96333.63;4999203;28;20404;-80
2024/01/06 05:26:54;;;;;;;7.93;4.15;;;;;;;2.51;100.00;96332.47;5001543;28;20413;-80
2024/01/06 05:29:20;;;;;;;6.90;3.75;;;;;;;2.51;100.00;96335.88;5001397;28;20442;-80
2024/01/06 05:31:48;;;;;;;3.80;3.10;;;;;;;2.51;100.00;96337.69;5001469;28;20449;-79
2024/01/06 05:34:15;;;;;;;4.80;3.22;;;;;;;2.51;100.00;96340.28;5001817;28;20429;-80
2024/01/06 05:36:41;;;;;;;4.68;2.83;;;;;;;2.50;100.00;96343.91;5001613;28;20402;-80
2024/01/06 05:39:07;;;;;;;3.75;3.10;;;;;;;2.50;100.00;96339.50;5001600;28;20890;-80
2024/01/06 05:41:38;;;;;;;3.50;2.97;;;;;;;2.51;100.00;96337.69;5001079;28;20399;-80
2024/01/06 05:44:04;;;;;;;3.97;2.95;;;;;;;2.53;100.00;96344.28;5001940;28;20411;-80
2024/01/06 05:46:31;;;;;;;6.80;3.63;;;;;;;2.54;100.00;96345.06;5001808;28;20864;-80
2024/01/06 05:48:59;;;;;;;8.75;4.30;;;;;;;2.55;100.00;96350.09;5001661;28;20418;-80
2024/01/06 05:51:25;;;;;;;8.00;4.10;;;;;;;2.57;100.00;96350.63;5002419;28;20461;-80
2024/01/06 05:53:52;;;;;;;6.15;3.88;;;;;;;2.56;100.00;96349.03;5002716;28;20433;-80
2024/01/06 05:56:25;;;;;;;4.20;3.50;;;;;;;2.54;100.00;96356.31;5001665;28;20513;-80
2024/01/06 05:58:51;;;;;;;3.90;3.30;;;;;;;2.54;100.00;96363.38;5001028;28;20410;-79
2024/01/06 06:01:17;;;;;;;7.20;4.00;;;;;;;2.52;100.00;96365.41;5002554;28;20497;-78
2024/01/06 06:03:43;;;;;;;5.95;3.83;;;;;;;2.50;100.00;96376.06;5001356;28;20410;-80
2024/01/06 06:06:11;;;;;;;5.38;3.30;;;;;;;2.50;100.00;96370.03;5001082;28;20398;-79
2024/01/06 06:08:37;;;;;;;4.60;3.40;;;;;;;2.48;100.00;96385.16;5000470;28;20422;-79
2024/01/06 06:11:10;;;;;;;4.57;3.30;;;;;;;2.50;100.00;96396.16;5000058;28;20807;-80
2024/01/06 06:13:36;;;;;;;3.30;3.00;;;;;;;2.52;100.00;96402.75;4999947;28;20394;-78
2024/01/06 06:16:03;;;;;;;3.47;3.17;;;;;;;2.53;100.00;96398.34;4998906;28;20538;-79
2024/01/06 06:18:29;;;;;;;3.60;3.08;;;;;;;2.56;100.00;96403.88;5019230;28;20409;-80
2024/01/06 06:20:56;;;;;;;3.20;2.90;;;;;;;2.58;100.00;96388.81;5019246;28;20425;-80
2024/01/06 06:23:23;;;;;;;3.55;2.80;;;;;;;2.60;100.00;96391.19;5017903;28;20409;-78
2024/01/06 06:25:49;;;;;;;3.75;2.80;;;;;;;2.61;100.00;96395.41;5016591;28;20475;-78
2024/01/06 06:28:15;;;;;;;5.30;2.87;;;;;;;2.62;100.00;96402.22;5016364;28;20400;-76
2024/01/06 06:30:42;;;;;;;4.55;3.00;;;;;;;2.63;100.00;96401.22;5003843;28;20404;-78
2024/01/06 06:33:09;;;;;;;4.10;3.03;;;;;;;2.65;100.00;96407.78;4992027;28;20398;-79
2024/01/06 06:35:35;;;;;;;3.97;3.15;;;;;;;2.66;100.00;96411.19;5013305;28;20407;-80
2024/01/06 06:38:01;;;;;;;4.20;2.83;;;;;;;2.67;100.00;96420.63;4999857;28;20498;-77
2024/01/06 06:40:28;;;;;;;4.82;3.17;;;;;;;2.67;100.00;96418.81;4998461;28;20497;-78
2024/01/06 06:42:55;;;;;;;4.28;2.85;;;;;;;2.67;100.00;96421.41;5001408;28;20411;-79
2024/01/06 06:45:22;;;;;;;5.55;3.40;;;;;;;2.67;100.00;96418.81;5001349;28;20409;-79
2024/01/06 06:47:49;;;;;;;7.75;3.90;;;;;;;2.67;100.00;96420.63;4999908;28;20402;-79
2024/01/06 06:50:15;;;;;;;5.25;3.45;;;;;;;2.68;100.00;96420.41;5000645;28;20513;-79
2024/01/06 06:52:42;;;;;;;4.38;3.20;;;;;;;2.69;100.00;96426.44;4988827;28;20411;-79
2024/01/06 06:55:08;;;;;;;3.72;3.30;;;;;;;2.70;100.00;96434.03;4989887;28;20928;-79
2024/01/06 06:57:36;;;;;;;5.23;3.07;;;;;;;2.71;100.00;96440.84;4990048;28;20404;-79
2024/01/06 07:00:02;;;;;;;4.40;3.13;;;;;;;2.73;100.00;96436.19;4978121;28;20412;-79
2024/01/06 07:02:28;;;;;;;6.05;3.22;;;;;;;2.75;100.00;96449.03;4984850;28;20461;-80
2024/01/06 07:04:54;;;;;;;4.78;3.20;;;;;;;2.76;100.00;96450.63;5000860;28;20398;-80
2024/01/06 07:07:21;;;;;;;4.23;3.07;;;;;;;2.77;100.00;96447.00;5010166;28;20408;-79
2024/01/06 07:09:47;;;;;;;4.05;2.92;;;;;;;2.78;100.00;96445.19;5010273;28;20446;-79
2024/01/06 07:12:13;;;;;;;5.70;3.20;;;;;;;2.80;100.00;96449.16;5003829;28;20406;-80
2024/01/06 07:14:40;;;;;;;4.22;3.28;;;;;;;2.81;100.00;96455.19;5001045;28;20453;-78
2024/01/06 07:17:08;;;;;;;6.63;3.42;;;;;;;2.81;100.00;96447.34;4992670;28;20413;-80
2024/01/06 07:19:35;;;;;;;7.40;3.45;;;;;;;2.81;100.00;96449.94;5002274;28;20410;-80
2024/01/06 07:22:01;;;;;;;5.40;3.00;;;;;;;2.82;100.00;96443.72;5000118;28;20415;-79
2024/01/06 07:24:28;;;;;;;5.47;2.85;;;;;;;2.83;100.00;96453.16;5002269;28;20437;-79
2024/01/06 07:26:54;;;;;;;3.35;2.78;;;;;;;2.82;100.00;96457.56;4991042;28;20408;-78
2024/01/06 07:29:20;;;;;;;4.35;2.97;;;;;;;2.84;100.00;96460.78;4985431;28;20424;-79
2024/01/06 07:31:47;;;;;;;3.58;2.85;;;;;;;2.84;100.00;96458.16;4980247;28;20407;-79
2024/01/06 07:34:13;;;;;;;3.88;3.05;;;;;;;2.86;100.00;96463.94;4980674;28;20451;-78
2024/01/06 07:36:40;;;;;;;3.60;3.10;;;;;;;2.88;100.00;96463.72;4979575;28;20411;-78
2024/01/06 07:39:06;;;;;;;3.70;3.10;;;;;;;2.91;100.00;96469.31;4978919;28;20471;-79
2024/01/06 07:41:32;;;;;;;4.53;3.20;;;;;;;2.90;100.00;96467.69;4979038;28;20404;-79
2024/01/06 07:43:58;;;;;;;4.43;3.10;;;;;;;2.92;100.00;96464.88;4993166;28;20410;-79
2024/01/06 07:46:24;;;;;;;3.30;3.00;;;;;;;2.95;100.00;96469.63;4994755;28;20474;-79
2024/01/06 07:48:52;;;;;;;3.73;3.13;;;;;;;2.96;100.00;96466.78;4993310;28;20438;-79
2024/01/06 07:51:18;;;;;;;5.83;3.10;;;;;;;2.96;100.00;96466.78;4998157;28;20454;-77
2024/01/06 07:53:44;;;;;;;3.75;3.10;;;;;;;2.98;100.00;96464.75;5002202;28;20399;-76
2024/01/06 07:56:11;;;;;;;4.43;3.13;;;;;;;3.00;100.00;96462.72;4999831;28;20419;-77
2024/01/06 07:58:37;;;;;;;3.67;2.97;;;;;;;3.00;100.00;96462.72;4997301;28;20887;-77
2024/01/06 08:01:03;;;;;;;7.18;4.30;;;;;;;3.01;100.00;96464.28;4997411;28;20396;-77
2024/01/06 08:03:29;;;;;;;6.40;4.72;;;;;;;3.06;100.00;96468.88;4992602;28;20501;-80
2024/01/06 08:05:57;;;;;;;7.25;4.68;;;;;;;3.07;100.00;96470.47;4995001;28;20442;-79
2024/01/06 08:08:23;;;;;;;7.10;4.38;;;;;;;3.13;100.00;96466.13;4999307;28;20417;-79
2024/01/06 08:10:49;;;;;;;10.73;5.25;;;;;;;3.13;100.00;96464.31;4997723;28;20858;-79
2024/01/06 08:13:16;;;;;;;8.20;4.68;;;;;;;3.19;100.00;96470.47;5002570;28;20414;-78
2024/01/06 08:15:42;;;;;;;13.77;5.70;;;;;;;3.05;100.00;96473.28;5003311;28;20938;-78
2024/01/06 08:18:08;;;;;;;8.68;4.97;;;;;;;3.13;100.00;96474.78;5004291;28;20407;-78
2024/01/06 08:20:34;;;;;;;7.10;4.57;;;;;;;3.20;100.00;96467.63;4995772;28;20485;-78
2024/01/06 08:23:02;;;;;;;6.97;4.78;;;;;;;3.22;100.00;96473.44;4994819;28;20406;-77
2024/01/06 08:25:28;;;;;;;6.88;4.15;;;;;;;3.23;100.00;96477.66;4993906;28;20486;-78
2024/01/06 08:27:55;;;;;;;8.00;4.40;;;;;;;3.25;100.00;96472.97;4993341;28;20424;-77
2024/01/06 08:30:21;;;;;;;5.57;4.35;;;;;;;3.29;100.00;96479.34;4992360;28;20894;-77
2024/01/06 08:32:47;;;;;;;7.28;4.72;;;;;;;3.25;100.00;96478.19;4985879;28;20403;-78
2024/01/06 08:35:16;;;;;;;7.77;4.27;;;;;;;3.31;100.00;96479.09;4991114;28;20414;-77
2024/01/06 08:37:44;;;;;;;6.53;4.28;;;;;;;3.21;100.00;96482.28;4992094;28;20399;-77
2024/01/06 08:40:12;;;;;;;7.68;4.93;;;;;;;3.30;100.00;96483.56;4992280;28;20411;-77
2024/01/06 08:42:38;;;;;;;8.43;4.15;;;;;;;3.33;100.00;96483.09;4989955;28;20498;-77
2024/01/06 08:45:05;;;;;;;8.35;3.92;;;;;;;3.40;100.00;96486.38;4990418;28;20946;-77
2024/01/06 08:47:31;;;;;;;5.85;3.70;;;;;;;3.54;100.00;96488.75;4990771;28;20502;-78
2024/01/06 08:49:57;;;;;;;7.07;4.13;;;;;;;3.60;100.00;96496.53;4990435;28;20505;-77
2024/01/06 08:52:23;;;;;;;5.90;3.88;;;;;;;3.68;100.00;96490.16;4992616;28;20479;-78
2024/01/06 08:54:49;;;;;;;4.57;3.58;;;;;;;3.71;100.00;96497.53;4992536;28;20403;-78
2024/01/06 08:57:17;;;;;;;4.67;3.30;;;;;;;3.80;100.00;96491.72;4992857;28;20930;-78
2024/01/06 08:59:45;;;;;;;4.60;3.25;;;;;;;3.89;100.00;96494.78;4992475;28;20542;-78
2024/01/06 09:02:11;;;;;;;4.72;3.40;;;;;;;3.96;100.00;96490.22;4993384;28;20417;-78
2024/01/06 09:04:37;;;;;;;4.07;3.45;;;;;;;3.98;100.00;96492.59;4992177;28;21487;-77
2024/01/06 09:07:04;;;;;;;6.25;3.50;;;;;;;3.89;100.00;96500.81;4992462;28;20395;-77
2024/01/06 09:09:30;;;;;;;4.63;3.40;;;;;;;3.91;100.00;96502.41;4992167;28;20422;-77
2024/01/06 09:11:56;;;;;;;5.85;3.28;;;;;;;3.96;100.00;96500.69;4992948;28;20473;-78
2024/01/06 09:14:23;;;;;;;3.58;3.10;;;;;;;4.05;100.00;96501.13;4994562;28;20868;-78
2024/01/06 09:16:49;;;;;;;3.57;3.03;;;;;;;4.14;100.00;96502.34;4994836;28;20506;-77
2024/01/06 09:19:15;;;;;;;5.22;3.85;;;;;;;4.18;100.00;96504.28;4994465;28;20453;-76
2024/01/06 09:21:42;;;;;;;3.10;2.80;;;;;;;4.26;100.00;96510.97;4993636;28;20963;-77
2024/01/06 09:24:08;;;;;;;3.78;3.10;;;;;;;4.31;100.00;96511.06;4991924;28;20410;-76
2024/01/06 09:26:34;;;;;;;3.00;2.70;;;;;;;4.39;100.00;96513.31;4994042;28;20413;-78
2024/01/06 09:29:00;;;;;;;3.03;2.72;;;;;;;4.44;100.00;96518.66;4995142;28;20422;-78
2024/01/06 09:31:29;;;;;;;3.78;2.83;;;;;;;4.45;100.00;96517.63;4996169;28;20815;-78
2024/01/06 09:33:55;;;;;;;3.17;2.87;;;;;;;4.50;100.00;96527.44;4996346;28;20441;-78
2024/01/06 09:36:21;;;;;;;3.10;2.58;;;;;;;4.53;100.00;96525.13;4997263;28;20762;-78
2024/01/06 09:38:47;;;;;;;3.20;2.60;;;;;;;4.59;100.00;96533.88;4996370;28;20485;-78
2024/01/06 09:41:13;;;;;;;4.13;2.85;;;;;;;4.56;100.00;96535.16;4996551;28;20787;-78
2024/01/06 09:43:40;;;;;;;3.78;2.70;;;;;;;4.60;100.00;96540.69;4995884;28;20403;-78
2024/01/06 09:46:10;;;;;;;2.58;2.33;;;;;;;4.64;100.00;96542.63;4995956;28;20434;-78
2024/01/06 09:48:43;;;;;;;2.40;2.20;;;;;;;4.72;100.00;96540.69;4997041;28;20417;-78
2024/01/06 09:51:11;;;;;;;2.53;2.33;;;;;;;4.75;100.00;96545.44;4995148;28;20749;-77
2024/01/06 09:53:47;;;;;;;2.85;2.60;;;;;;;4.76;100.00;96544.41;4994043;28;20426;-77
2024/01/06 09:56:14;;;;;;;3.50;2.50;;;;;;;4.78;100.00;96545.78;4993937;28;20406;-78
2024/01/06 09:58:42;;;;;;;2.58;2.28;;;;;;;4.79;100.00;96541.31;4993731;28;20402;-78
2024/01/06 10:01:09;;;;;;;3.03;2.70;;;;;;;4.79;100.00;96562.31;4993818;28;20737;-78
2024/01/06 10:03:37;;;;;;;2.50;2.30;;;;;;;4.77;100.00;96549.41;4993418;28;20395;-77
2024/01/06 10:06:04;;;;;;;4.68;2.92;;;;;;;4.62;100.00;96549.13;4993486;28;20395;-77
2024/01/06 10:08:34;;;;;;;4.07;3.00;;;;;;;4.55;100.00;96551.91;4993771;28;20424;-78
2024/01/06 10:11:01;;;;;;;2.90;2.60;;;;;;;4.50;100.00;96549.19;4995229;28;20434;-78
2024/01/06 10:13:30;;;;;;;2.73;2.53;;;;;;;4.43;100.00;96553.78;4996462;28;20405;-77
2024/01/06 10:15:56;;;;;;;2.80;2.60;;;;;;;4.41;100.00;96547.16;4996175;28;20697;-77
2024/01/06 10:18:24;;;;;;;2.70;2.50;;;;;;;4.37;100.00;96551.25;4996339;28;20410;-78
2024/01/06 10:20:52;;;;;;;3.22;2.70;;;;;;;4.32;100.00;96551.16;4997022;28;20410;-78
2024/01/06 10:23:18;;;;;;;4.32;3.03;;;;;;;4.21;100.00;96548.31;4998416;28;20473;-78
2024/01/06 10:25:44;;;;;;;4.63;3.40;;;;;;;4.14;100.00;96552.91;4996632;28;20398;-77
2024/01/06 10:28:13;;;;;;;3.30;3.00;;;;;;;4.11;100.00;96542.09;4995732;28;20420;-77
2024/01/06 10:30:39;;;;;;;4.70;3.17;;;;;;;4.08;100.00;96545.97;4995528;28;20454;-77
2024/01/06 10:33:08;;;;;;;4.00;3.20;;;;;;;4.07;100.00;96557.47;4995332;28;20399;-77
2024/01/06 10:35:36;;;;;;;5.97;3.60;;;;;;;4.05;100.00;96543.81;4995901;28;20402;-77
2024/01/06 10:38:04;;;;;;;5.22;3.58;;;;;;;4.06;100.00;96545.38;4995577;28;20398;-78
2024/01/06 10:40:30;;;;;;;4.90;3.58;;;;;;;4.08;100.00;96553.81;4995324;28;20411;-77
2024/01/06 10:42:57;;;;;;;3.60;2.97;;;;;;;4.12;100.00;96554.16;4995667;28;20406;-78
2024/01/06 10:45:24;;;;;;;3.42;3.08;;;;;;;4.18;100.00;96550.63;4996041;28;20906;-77
2024/01/06 10:47:50;;;;;;;3.08;2.78;;;;;;;4.23;100.00;96554.13;4996016;28;20426;-77
2024/01/06 10:50:17;;;;;;;3.00;2.70;;;;;;;4.25;100.00;96551.28;4995263;28;20418;-77
2024/01/06 10:52:45;;;;;;;4.07;2.97;;;;;;;4.24;100.00;96554.94;4995972;28;20768;-78
2024/01/06 10:55:16;;;;;;;3.38;2.83;;;;;;;4.28;100.00;96546.38;4995400;28;20403;-77
2024/01/06 10:57:47;;;;;;;4.13;3.40;;;;;;;4.34;100.00;96549.91;4995362;28;20434;-77
2024/01/06 11:00:14;;;;;;;4.18;3.47;;;;;;;4.34;100.00;96547.28;4995729;28;20403;-78
2024/01/06 11:02:41;;;;;;;4.60;3.83;;;;;;;4.34;100.00;96542.06;4995422;28;20402;-78
2024/01/06 11:05:10;;;;;;;4.30;3.58;;;;;;;4.34;100.00;96546.50;4995148;28;20398;-77
2024/01/06 11:07:38;;;;;;;3.80;3.40;;;;;;;4.36;100.00;96544.44;4995558;28;20399;-78
2024/01/06 11:10:09;;;;;;;4.60;3.70;;;;;;;4.37;100.00;96543.38;4995544;28;20424;-78
2024/01/06 11:12:36;;;;;;;3.83;3.35;;;;;;;4.39;100.00;96539.53;4994258;28;20403;-78
2024/01/06 11:15:04;;;;;;;3.25;2.95;;;;;;;4.45;100.00;96541.22;4996351;28;20394;-78
2024/01/06 11:17:55;;;;;;;3.10;2.85;;;;;;;4.51;100.00;96539.50;4994638;28;20481;-77
2024/01/06 11:20:22;;;;;;;4.15;3.60;;;;;;;4.39;100.00;96538.72;4996270;28;20513;-78
2024/01/06 11:22:49;;;;;;;4.30;3.47;;;;;;;4.43;100.00;96543.28;4993669;28;20958;-78
2024/01/06 11:25:16;;;;;;;3.30;3.00;;;;;;;4.48;100.00;96535.50;4994339;28;20422;-78
2024/01/06 11:27:45;;;;;;;3.75;3.40;;;;;;;4.51;100.00;96540.28;4993802;28;20761;-77
2024/01/06 11:30:21;;;;;;;4.05;3.40;;;;;;;4.56;100.00;96536.97;4994209;28;20541;-78